sensor_id;sensor_type;location;lat;lon;timestamp;pressure;altitude;pressure_sealevel;temperature;humidity
47374;BME280;33123;50.118;10.272;2022-07-12T00:01:41;98394.31;;;17.20;68.56
47374;BME280;33123;50.118;10.272;2022-07-12T00:04:08;98404.19;;;17.14;67.73
47374;BME280;33123;50.118;10.272;2022-07-12T00:06:34;98396.22;;;17.09;67.24
47374;BME280;33123;50.118;10.272;2022-07-12T00:09:01;98405.56;;;16.97;67.83
47374;BME280;33123;50.118;10.272;2022-07-12T00:11:28;98418.38;;;16.89;68.04
47374;BME280;33123;50.118;10.272;2022-07-12T00:13:56;98422.91;;;16.69;69.17
47374;BME280;33123;50.118;10.272;2022-07-12T00:16:23;98417.56;;;16.63;69.22
47374;BME280;33123;50.118;10.272;2022-07-12T00:18:49;98420.22;;;16.23;71.36
47374;BME280;33123;50.118;10.272;2022-07-12T00:21:16;98417.59;;;16.28;70.88
47374;BME280;33123;50.118;10.272;2022-07-12T00:23:42;98412.25;;;16.28;70.45
47374;BME280;33123;50.118;10.272;2022-07-12T00:26:09;98420.47;;;16.26;70.34
47374;BME280;33123;50.118;10.272;2022-07-12T00:28:36;98421.03;;;16.23;70.27
47374;BME280;33123;50.118;10.272;2022-07-12T00:31:04;98415.19;;;16.21;70.17
47374;BME280;33123;50.118;10.272;2022-07-12T00:33:31;98411.44;;;16.17;70.21
47374;BME280;33123;50.118;10.272;2022-07-12T00:35:58;98409.84;;;16.16;69.95
47374;BME280;33123;50.118;10.272;2022-07-12T00:38:24;98402.91;;;16.15;70.81
47374;BME280;33123;50.118;10.272;2022-07-12T00:40:51;98399.75;;;16.13;70.33
47374;BME280;33123;50.118;10.272;2022-07-12T00:43:17;98402.91;;;16.10;68.92
47374;BME280;33123;50.118;10.272;2022-07-12T00:45:44;98402.66;;;16.06;68.88
47374;BME280;33123;50.118;10.272;2022-07-12T00:48:12;98402.38;;;16.03;68.96
47374;BME280;33123;50.118;10.272;2022-07-12T00:50:39;98397.84;;;15.98;68.98
47374;BME280;33123;50.118;10.272;2022-07-12T00:53:06;98399.69;;;15.93;68.68
47374;BME280;33123;50.118;10.272;2022-07-12T00:55:34;98387.22;;;15.88;69.24
47374;BME280;33123;50.118;10.272;2022-07-12T00:58:01;98399.94;;;15.86;69.26
47374;BME280;33123;50.118;10.272;2022-07-12T01:00:28;98398.06;;;15.81;68.97
47374;BME280;33123;50.118;10.272;2022-07-12T01:02:56;98404.72;;;15.79;69.13
47374;BME280;33123;50.118;10.272;2022-07-12T01:05:26;98401.78;;;15.75;69.60
47374;BME280;33123;50.118;10.272;2022-07-12T01:07:54;98392.75;;;15.71;70.99
47374;BME280;33123;50.118;10.272;2022-07-12T01:10:21;98395.66;;;15.70;71.13
47374;BME280;33123;50.118;10.272;2022-07-12T01:12:48;98397.78;;;15.68;70.34
47374;BME280;33123;50.118;10.272;2022-07-12T01:15:15;98372.72;;;15.48;70.37
47374;BME280;33123;50.118;10.272;2022-07-12T01:17:45;98395.91;;;15.63;70.50
47374;BME280;33123;50.118;10.272;2022-07-12T01:20:11;98404.91;;;15.62;70.43
47374;BME280;33123;50.118;10.272;2022-07-12T01:22:41;98405.44;;;15.59;70.39
47374;BME280;33123;50.118;10.272;2022-07-12T01:25:11;98399.59;;;15.57;70.41
47374;BME280;33123;50.118;10.272;2022-07-12T01:27:38;98368.69;;;15.36;70.21
47374;BME280;33123;50.118;10.272;2022-07-12T01:30:05;98400.38;;;15.52;69.57
47374;BME280;33123;50.118;10.272;2022-07-12T01:32:33;98399.84;;;15.50;69.75
47374;BME280;33123;50.118;10.272;2022-07-12T01:35:01;98401.41;;;15.46;70.05
47374;BME280;33123;50.118;10.272;2022-07-12T01:37:30;98405.63;;;15.42;69.74
47374;BME280;33123;50.118;10.272;2022-07-12T01:39:58;98365.91;;;15.10;69.25
47374;BME280;33123;50.118;10.272;2022-07-12T01:42:28;98409.59;;;15.35;69.15
47374;BME280;33123;50.118;10.272;2022-07-12T01:44:55;98402.63;;;15.23;69.22
47374;BME280;33123;50.118;10.272;2022-07-12T01:47:23;98409.53;;;15.24;69.02
47374;BME280;33123;50.118;10.272;2022-07-12T01:49:50;98403.94;;;15.21;69.30
47374;BME280;33123;50.118;10.272;2022-07-12T01:52:17;98408.97;;;15.17;69.47
47374;BME280;33123;50.118;10.272;2022-07-12T01:54:44;98403.38;;;15.14;69.31
47374;BME280;33123;50.118;10.272;2022-07-12T01:57:11;98398.84;;;15.09;70.48
47374;BME280;33123;50.118;10.272;2022-07-12T01:59:40;98398.31;;;15.07;70.77
47374;BME280;33123;50.118;10.272;2022-07-12T02:02:07;98362.06;;;14.81;71.16
47374;BME280;33123;50.118;10.272;2022-07-12T02:04:34;98400.44;;;15.05;71.68
47374;BME280;33123;50.118;10.272;2022-07-12T02:07:00;98400.44;;;15.05;72.11
47374;BME280;33123;50.118;10.272;2022-07-12T02:09:28;98402.03;;;15.06;72.31
47374;BME280;33123;50.118;10.272;2022-07-12T02:11:54;98398.84;;;15.09;72.33
47374;BME280;33123;50.118;10.272;2022-07-12T02:14:21;98378.59;;;14.98;72.56
47374;BME280;33123;50.118;10.272;2022-07-12T02:16:49;98387.19;;;15.15;72.19
47374;BME280;33123;50.118;10.272;2022-07-12T02:19:16;98388.84;;;15.21;72.77
47374;BME280;33123;50.118;10.272;2022-07-12T02:21:42;98391.47;;;15.26;72.44
47374;BME280;33123;50.118;10.272;2022-07-12T02:24:09;98391.50;;;15.31;72.53
47374;BME280;33123;50.118;10.272;2022-07-12T02:26:36;98396.03;;;15.36;72.75
47374;BME280;33123;50.118;10.272;2022-07-12T02:29:03;98391.81;;;15.40;73.01
47374;BME280;33123;50.118;10.272;2022-07-12T02:31:30;98390.50;;;15.43;73.12
47374;BME280;33123;50.118;10.272;2022-07-12T02:33:58;98390.50;;;15.48;72.86
47374;BME280;33123;50.118;10.272;2022-07-12T02:36:25;98393.97;;;15.53;73.11
47374;BME280;33123;50.118;10.272;2022-07-12T02:38:51;98338.88;;;15.18;73.17
47374;BME280;33123;50.118;10.272;2022-07-12T02:41:18;98381.50;;;15.54;73.28
47374;BME280;33123;50.118;10.272;2022-07-12T02:43:45;98397.00;;;15.67;72.90
47374;BME280;33123;50.118;10.272;2022-07-12T02:46:12;98400.72;;;15.71;72.43
47374;BME280;33123;50.118;10.272;2022-07-12T02:48:40;98404.44;;;15.75;72.36
47374;BME280;33123;50.118;10.272;2022-07-12T02:51:08;98399.41;;;15.79;72.10
47374;BME280;33123;50.118;10.272;2022-07-12T02:53:36;98380.78;;;15.69;72.08
47374;BME280;33123;50.118;10.272;2022-07-12T02:56:04;98389.06;;;15.82;71.96
47374;BME280;33123;50.118;10.272;2022-07-12T02:58:31;98396.50;;;15.80;71.60
47374;BME280;33123;50.118;10.272;2022-07-12T03:00:58;98397.56;;;15.79;71.63
47374;BME280;33123;50.118;10.272;2022-07-12T03:03:25;98397.81;;;15.78;71.25
47374;BME280;33123;50.118;10.272;2022-07-12T03:05:51;98392.50;;;15.78;71.36
47374;BME280;33123;50.118;10.272;2022-07-12T03:08:19;98395.41;;;15.76;71.43
47374;BME280;33123;50.118;10.272;2022-07-12T03:10:46;98394.88;;;15.74;71.27
47374;BME280;33123;50.118;10.272;2022-07-12T03:13:13;98398.06;;;15.71;71.16
47374;BME280;33123;50.118;10.272;2022-07-12T03:19:01;98407.06;;;15.65;70.44
47374;BME280;33123;50.118;10.272;2022-07-12T03:21:28;98400.66;;;15.61;70.65
47374;BME280;33123;50.118;10.272;2022-07-12T03:23:57;98405.69;;;15.57;71.51
47374;BME280;33123;50.118;10.272;2022-07-12T03:26:23;98407.53;;;15.52;72.04
47374;BME280;33123;50.118;10.272;2022-07-12T03:28:50;98411.53;;;15.49;72.45
47374;BME280;33123;50.118;10.272;2022-07-12T03:31:17;98413.63;;;15.47;72.46
47374;BME280;33123;50.118;10.272;2022-07-12T03:33:43;98409.38;;;15.46;72.18
47374;BME280;33123;50.118;10.272;2022-07-12T03:36:10;98406.72;;;15.46;71.77
47374;BME280;33123;50.118;10.272;2022-07-12T03:38:38;98404.84;;;15.47;71.51
47374;BME280;33123;50.118;10.272;2022-07-12T03:41:06;98412.28;;;15.45;71.05
47374;BME280;33123;50.118;10.272;2022-07-12T03:43:33;98414.94;;;15.45;70.69
47374;BME280;33123;50.118;10.272;2022-07-12T03:46:00;98418.66;;;15.44;70.57
47374;BME280;33123;50.118;10.272;2022-07-12T03:48:26;98415.47;;;15.42;70.28
47374;BME280;33123;50.118;10.272;2022-07-12T03:50:53;98422.09;;;15.39;70.35
47374;BME280;33123;50.118;10.272;2022-07-12T03:53:21;98420.75;;;15.37;69.90
47374;BME280;33123;50.118;10.272;2022-07-12T03:55:47;98420.22;;;15.35;69.86
47374;BME280;33123;50.118;10.272;2022-07-12T03:58:15;98421.50;;;15.32;69.87
47374;BME280;33123;50.118;10.272;2022-07-12T04:00:42;98438.78;;;15.29;70.99
47374;BME280;33123;50.118;10.272;2022-07-12T04:03:09;98442.50;;;15.28;71.19
47374;BME280;33123;50.118;10.272;2022-07-12T04:05:36;98440.91;;;15.27;71.56
47374;BME280;33123;50.118;10.272;2022-07-12T04:08:04;98449.41;;;15.29;71.21
47374;BME280;33123;50.118;10.272;2022-07-12T04:10:30;98441.97;;;15.31;71.13
47374;BME280;33123;50.118;10.272;2022-07-12T04:12:57;98420.63;;;15.11;71.03
47374;BME280;33123;50.118;10.272;2022-07-12T04:15:25;98447.88;;;15.39;71.38
47374;BME280;33123;50.118;10.272;2022-07-12T04:17:51;98455.03;;;15.43;71.22
47374;BME280;33123;50.118;10.272;2022-07-12T04:20:18;98459.06;;;15.51;71.14
47374;BME280;33123;50.118;10.272;2022-07-12T04:22:45;98454.31;;;15.58;71.48
47374;BME280;33123;50.118;10.272;2022-07-12T04:25:11;98459.19;;;15.66;71.69
47374;BME280;33123;50.118;10.272;2022-07-12T04:27:38;98467.16;;;15.71;71.10
47374;BME280;33123;50.118;10.272;2022-07-12T04:30:06;98464.50;;;15.76;71.13
47374;BME280;33123;50.118;10.272;2022-07-12T04:32:34;98465.59;;;15.80;71.04
47374;BME280;33123;50.118;10.272;2022-07-12T04:35:00;98454.44;;;15.83;70.61
47374;BME280;33123;50.118;10.272;2022-07-12T04:37:27;98460.59;;;15.89;70.36
47374;BME280;33123;50.118;10.272;2022-07-12T04:39:54;98460.59;;;15.94;69.87
47374;BME280;33123;50.118;10.272;2022-07-12T04:42:20;98457.13;;;15.99;69.87
47374;BME280;33123;50.118;10.272;2022-07-12T04:44:47;98459.81;;;16.09;70.21
47374;BME280;33123;50.118;10.272;2022-07-12T04:47:28;98460.13;;;16.18;71.53
47374;BME280;33123;50.118;10.272;2022-07-12T04:49:56;98468.38;;;16.26;71.26
47374;BME280;33123;50.118;10.272;2022-07-12T04:52:23;98465.72;;;16.36;71.29
47374;BME280;33123;50.118;10.272;2022-07-12T04:54:49;98468.91;;;16.49;71.16
47374;BME280;33123;50.118;10.272;2022-07-12T04:57:16;98471.88;;;16.62;71.38
47374;BME280;33123;50.118;10.272;2022-07-12T04:59:43;98473.78;;;16.77;72.52
47374;BME280;33123;50.118;10.272;2022-07-12T05:02:09;98460.44;;;16.93;74.08
47374;BME280;33123;50.118;10.272;2022-07-12T05:04:36;98467.84;;;17.21;72.12
47374;BME280;33123;50.118;10.272;2022-07-12T05:07:04;98465.91;;;17.47;71.50
47374;BME280;33123;50.118;10.272;2022-07-12T05:09:30;98463.19;;;17.78;70.77
47374;BME280;33123;50.118;10.272;2022-07-12T05:11:57;98472.84;;;18.13;70.65
47374;BME280;33123;50.118;10.272;2022-07-12T05:14:24;98476.88;;;18.55;70.30
47374;BME280;33123;50.118;10.272;2022-07-12T05:16:50;98478.13;;;18.96;68.93
47374;BME280;33123;50.118;10.272;2022-07-12T05:19:17;98485.44;;;19.44;67.81
47374;BME280;33123;50.118;10.272;2022-07-12T05:21:44;98486.84;;;19.84;65.50
47374;BME280;33123;50.118;10.272;2022-07-12T05:24:12;98485.28;;;20.21;63.85
47374;BME280;33123;50.118;10.272;2022-07-12T05:26:39;98493.84;;;20.61;62.95
47374;BME280;33123;50.118;10.272;2022-07-12T05:29:06;98493.03;;;20.93;61.76
47374;BME280;33123;50.118;10.272;2022-07-12T05:31:33;98497.09;;;21.23;60.06
47374;BME280;33123;50.118;10.272;2022-07-12T05:34:00;98499.84;;;21.50;59.24
47374;BME280;33123;50.118;10.272;2022-07-12T05:36:27;98498.72;;;21.79;58.12
47374;BME280;33123;50.118;10.272;2022-07-12T05:38:54;98497.91;;;22.06;56.96
47374;BME280;33123;50.118;10.272;2022-07-12T05:41:22;98507.94;;;22.28;56.66
47374;BME280;33123;50.118;10.272;2022-07-12T05:43:48;98499.28;;;22.53;55.36
47374;BME280;33123;50.118;10.272;2022-07-12T05:46:15;98500.06;;;22.76;54.46
47374;BME280;33123;50.118;10.272;2022-07-12T05:48:41;98506.66;;;23.06;54.55
47374;BME280;33123;50.118;10.272;2022-07-12T05:51:08;98505.03;;;23.28;53.02
47374;BME280;33123;50.118;10.272;2022-07-12T05:53:52;98502.59;;;23.57;52.35
47374;BME280;33123;50.118;10.272;2022-07-12T05:56:19;98501.63;;;23.93;51.70
47374;BME280;33123;50.118;10.272;2022-07-12T05:58:47;98502.03;;;24.35;50.38
47374;BME280;33123;50.118;10.272;2022-07-12T06:01:13;98499.16;;;24.74;50.12
47374;BME280;33123;50.118;10.272;2022-07-12T06:03:40;98507.69;;;25.02;47.36
47374;BME280;33123;50.118;10.272;2022-07-12T06:06:06;98508.41;;;25.38;47.93
47374;BME280;33123;50.118;10.272;2022-07-12T06:08:33;98508.16;;;25.60;46.60
47374;BME280;33123;50.118;10.272;2022-07-12T06:11:00;98512.81;;;25.89;46.34
47374;BME280;33123;50.118;10.272;2022-07-12T06:13:26;98514.69;;;26.18;45.69
47374;BME280;33123;50.118;10.272;2022-07-12T06:15:54;98516.28;;;26.40;44.84
47374;BME280;33123;50.118;10.272;2022-07-12T06:18:21;98507.22;;;26.45;43.87
47374;BME280;33123;50.118;10.272;2022-07-12T06:20:48;98521.53;;;26.78;43.64
47374;BME280;33123;50.118;10.272;2022-07-12T06:23:14;98522.75;;;27.02;43.68
47374;BME280;33123;50.118;10.272;2022-07-12T06:25:41;98526.09;;;27.20;42.00
47374;BME280;33123;50.118;10.272;2022-07-12T06:28:08;98526.91;;;27.32;40.87
47374;BME280;33123;50.118;10.272;2022-07-12T06:30:34;98523.53;;;27.48;41.40
47374;BME280;33123;50.118;10.272;2022-07-12T06:33:02;98526.16;;;27.44;40.96
47374;BME280;33123;50.118;10.272;2022-07-12T06:35:29;98526.25;;;27.48;40.63
47374;BME280;33123;50.118;10.272;2022-07-12T06:37:56;98518.38;;;27.09;40.49
47374;BME280;33123;50.118;10.272;2022-07-12T06:40:22;98523.53;;;27.02;42.20
47374;BME280;33123;50.118;10.272;2022-07-12T06:42:49;98525.41;;;27.10;41.96
47374;BME280;33123;50.118;10.272;2022-07-12T06:45:16;98540.00;;;27.43;41.93
47374;BME280;33123;50.118;10.272;2022-07-12T06:47:43;98531.72;;;27.72;40.37
47374;BME280;33123;50.118;10.272;2022-07-12T06:50:12;98530.34;;;28.03;40.61
47374;BME280;33123;50.118;10.272;2022-07-12T06:52:39;98528.63;;;28.35;39.80
47374;BME280;33123;50.118;10.272;2022-07-12T06:55:07;98521.28;;;28.63;39.44
47374;BME280;33123;50.118;10.272;2022-07-12T06:57:33;98535.34;;;28.81;38.13
47374;BME280;33123;50.118;10.272;2022-07-12T07:00:00;98546.38;;;28.73;37.87
47374;BME280;33123;50.118;10.272;2022-07-12T07:02:27;98550.16;;;28.56;37.96
47374;BME280;33123;50.118;10.272;2022-07-12T07:04:54;98546.94;;;28.38;38.44
47374;BME280;33123;50.118;10.272;2022-07-12T07:07:22;98542.28;;;28.14;38.40
47374;BME280;33123;50.118;10.272;2022-07-12T07:09:49;98545.03;;;27.89;39.45
47374;BME280;33123;50.118;10.272;2022-07-12T07:12:15;98542.84;;;27.58;40.20
47374;BME280;33123;50.118;10.272;2022-07-12T07:14:42;98539.09;;;27.26;40.33
47374;BME280;33123;50.118;10.272;2022-07-12T07:17:08;98526.44;;;27.18;41.37
47374;BME280;33123;50.118;10.272;2022-07-12T07:19:36;98533.91;;;27.46;40.77
47374;BME280;33123;50.118;10.272;2022-07-12T07:22:03;98532.16;;;27.99;40.49
47374;BME280;33123;50.118;10.272;2022-07-12T07:24:31;98532.59;;;28.65;37.89
47374;BME280;33123;50.118;10.272;2022-07-12T07:26:57;98531.59;;;29.14;36.12
47374;BME280;33123;50.118;10.272;2022-07-12T07:29:24;98530.78;;;29.57;35.10
47374;BME280;33123;50.118;10.272;2022-07-12T07:32:08;98540.59;;;29.93;35.29
47374;BME280;33123;50.118;10.272;2022-07-12T07:34:35;98541.22;;;30.38;34.59
47374;BME280;33123;50.118;10.272;2022-07-12T07:37:02;98528.97;;;30.86;33.74
47374;BME280;33123;50.118;10.272;2022-07-12T07:39:28;98538.06;;;31.36;32.67
47374;BME280;33123;50.118;10.272;2022-07-12T07:41:56;98519.28;;;31.77;32.29
47374;BME280;33123;50.118;10.272;2022-07-12T07:44:23;98519.34;;;32.07;30.42
47374;BME280;33123;50.118;10.272;2022-07-12T07:46:49;98527.63;;;32.41;30.65
47374;BME280;33123;50.118;10.272;2022-07-12T07:49:16;98528.59;;;32.55;32.40
47374;BME280;33123;50.118;10.272;2022-07-12T07:51:43;98522.94;;;32.75;30.32
47374;BME280;33123;50.118;10.272;2022-07-12T07:54:09;98533.06;;;33.04;28.34
47374;BME280;33123;50.118;10.272;2022-07-12T07:56:36;98526.66;;;33.27;27.89
47374;BME280;33123;50.118;10.272;2022-07-12T07:59:22;98527.09;;;33.36;27.81
47374;BME280;33123;50.118;10.272;2022-07-12T08:01:49;98527.03;;;33.29;28.71
47374;BME280;33123;50.118;10.272;2022-07-12T08:04:19;98517.72;;;33.37;28.04
47374;BME280;33123;50.118;10.272;2022-07-12T08:06:47;98515.72;;;33.30;26.76
47374;BME280;33123;50.118;10.272;2022-07-12T08:09:14;98513.72;;;33.24;28.28
47374;BME280;33123;50.118;10.272;2022-07-12T08:11:41;98518.00;;;33.21;28.34
47374;BME280;33123;50.118;10.272;2022-07-12T08:14:09;98517.63;;;33.23;27.80
47374;BME280;33123;50.118;10.272;2022-07-12T08:16:38;98517.72;;;33.37;27.72
47374;BME280;33123;50.118;10.272;2022-07-12T08:19:05;98521.41;;;33.48;26.93
47374;BME280;33123;50.118;10.272;2022-07-12T08:21:32;98521.63;;;33.36;27.24
47374;BME280;33123;50.118;10.272;2022-07-12T08:23:58;98515.72;;;33.27;26.34
47374;BME280;33123;50.118;10.272;2022-07-12T08:26:25;98513.44;;;33.36;28.21
47374;BME280;33123;50.118;10.272;2022-07-12T08:28:52;98527.25;;;33.50;27.50
47374;BME280;33123;50.118;10.272;2022-07-12T08:31:18;98528.09;;;33.54;26.96
47374;BME280;33123;50.118;10.272;2022-07-12T08:33:46;98522.13;;;33.45;26.83
47374;BME280;33123;50.118;10.272;2022-07-12T08:36:13;98530.94;;;33.28;26.58
47374;BME280;33123;50.118;10.272;2022-07-12T08:38:40;98532.69;;;32.76;27.16
47374;BME280;33123;50.118;10.272;2022-07-12T08:41:11;98519.63;;;32.55;27.51
47374;BME280;33123;50.118;10.272;2022-07-12T08:43:38;98516.28;;;32.39;27.52
47374;BME280;33123;50.118;10.272;2022-07-12T08:46:05;98525.34;;;32.46;28.00
47374;BME280;33123;50.118;10.272;2022-07-12T08:48:33;98521.25;;;32.63;27.37
47374;BME280;33123;50.118;10.272;2022-07-12T08:51:03;98517.59;;;32.48;27.62
47374;BME280;33123;50.118;10.272;2022-07-12T08:53:31;98523.28;;;32.70;28.18
47374;BME280;33123;50.118;10.272;2022-07-12T08:55:58;98526.84;;;32.74;26.79
47374;BME280;33123;50.118;10.272;2022-07-12T08:58:25;98507.59;;;32.93;27.32
47374;BME280;33123;50.118;10.272;2022-07-12T09:00:52;98512.44;;;33.14;26.47
47374;BME280;33123;50.118;10.272;2022-07-12T09:03:19;98514.56;;;33.31;26.58
47374;BME280;33123;50.118;10.272;2022-07-12T09:05:52;98515.59;;;33.57;26.14
47374;BME280;33123;50.118;10.272;2022-07-12T09:08:24;98511.97;;;33.94;26.32
47374;BME280;33123;50.118;10.272;2022-07-12T09:10:54;98514.56;;;34.38;25.99
47374;BME280;33123;50.118;10.272;2022-07-12T09:13:21;98508.84;;;34.79;25.06
47374;BME280;33123;50.118;10.272;2022-07-12T09:16:15;98511.28;;;35.12;24.03
47374;BME280;33123;50.118;10.272;2022-07-12T09:18:41;98512.88;;;35.17;23.74
47374;BME280;33123;50.118;10.272;2022-07-12T09:21:08;98499.56;;;35.40;23.85
47374;BME280;33123;50.118;10.272;2022-07-12T09:23:36;98500.78;;;35.54;23.39
47374;BME280;33123;50.118;10.272;2022-07-12T09:26:17;98501.88;;;35.85;24.32
47374;BME280;33123;50.118;10.272;2022-07-12T09:28:43;98482.28;;;36.04;23.87
47374;BME280;33123;50.118;10.272;2022-07-12T09:31:10;98493.94;;;36.30;22.55
47374;BME280;33123;50.118;10.272;2022-07-12T09:33:37;98492.34;;;36.39;22.51
47374;BME280;33123;50.118;10.272;2022-07-12T09:36:24;98497.41;;;36.48;22.23
47374;BME280;33123;50.118;10.272;2022-07-12T09:38:53;98503.75;;;36.31;21.82
47374;BME280;33123;50.118;10.272;2022-07-12T09:41:25;98498.38;;;35.99;22.93
47374;BME280;33123;50.118;10.272;2022-07-12T09:43:53;98491.38;;;35.55;23.00
47374;BME280;33123;50.118;10.272;2022-07-12T09:46:20;98490.56;;;35.58;23.38
47374;BME280;33123;50.118;10.272;2022-07-12T09:48:46;98489.75;;;35.64;23.65
47374;BME280;33123;50.118;10.272;2022-07-12T09:51:14;98503.84;;;35.81;23.66
47374;BME280;33123;50.118;10.272;2022-07-12T09:53:43;98489.78;;;35.57;21.82
47374;BME280;33123;50.118;10.272;2022-07-12T09:56:13;98489.81;;;35.50;22.60
47374;BME280;33123;50.118;10.272;2022-07-12T09:58:46;98495.25;;;35.64;22.71
47374;BME280;33123;50.118;10.272;2022-07-12T10:01:14;98494.09;;;35.51;22.77
47374;BME280;33123;50.118;10.272;2022-07-12T10:03:43;98498.38;;;34.04;24.42
47374;BME280;33123;50.118;10.272;2022-07-12T10:06:11;98501.75;;;34.60;23.71
47374;BME280;33123;50.118;10.272;2022-07-12T10:08:38;98500.22;;;34.66;24.50
47374;BME280;33123;50.118;10.272;2022-07-12T10:11:06;98498.38;;;34.99;24.32
47374;BME280;33123;50.118;10.272;2022-07-12T10:13:35;98502.31;;;35.48;23.68
47374;BME280;33123;50.118;10.272;2022-07-12T10:16:04;98492.84;;;35.91;22.38
47374;BME280;33123;50.118;10.272;2022-07-12T10:18:31;98495.13;;;36.43;22.81
47374;BME280;33123;50.118;10.272;2022-07-12T10:20:58;98497.25;;;36.80;22.11
47374;BME280;33123;50.118;10.272;2022-07-12T10:23:30;98500.31;;;37.00;20.85
47374;BME280;33123;50.118;10.272;2022-07-12T10:26:01;98488.56;;;36.96;21.35
47374;BME280;33123;50.118;10.272;2022-07-12T10:29:02;98500.28;;;37.04;21.90
47374;BME280;33123;50.118;10.272;2022-07-12T10:31:34;98498.16;;;37.25;21.75
47374;BME280;33123;50.118;10.272;2022-07-12T10:34:13;98501.63;;;37.37;21.43
47374;BME280;33123;50.118;10.272;2022-07-12T10:37:09;98504.50;;;37.67;21.70
47374;BME280;33123;50.118;10.272;2022-07-12T10:39:36;98504.41;;;37.78;20.89
47374;BME280;33123;50.118;10.272;2022-07-12T10:42:13;98503.16;;;37.86;20.37
47374;BME280;33123;50.118;10.272;2022-07-12T10:44:43;98501.31;;;37.72;20.45
47374;BME280;33123;50.118;10.272;2022-07-12T10:47:11;98503.03;;;37.59;20.64
47374;BME280;33123;50.118;10.272;2022-07-12T10:49:46;98488.19;;;37.46;20.91
47374;BME280;33123;50.118;10.272;2022-07-12T10:52:22;98486.84;;;37.16;20.90
47374;BME280;33123;50.118;10.272;2022-07-12T10:55:16;98499.19;;;37.46;21.50
47374;BME280;33123;50.118;10.272;2022-07-12T10:57:44;98492.47;;;37.50;20.82
47374;BME280;33123;50.118;10.272;2022-07-12T11:00:15;98493.53;;;37.64;21.10
47374;BME280;33123;50.118;10.272;2022-07-12T11:02:42;98491.38;;;37.86;21.05
47374;BME280;33123;50.118;10.272;2022-07-12T11:05:09;98485.19;;;38.12;20.59
47374;BME280;33123;50.118;10.272;2022-07-12T11:07:36;98479.66;;;38.16;19.45
47374;BME280;33123;50.118;10.272;2022-07-12T11:10:04;98478.47;;;38.13;21.21
47374;BME280;33123;50.118;10.272;2022-07-12T11:12:31;98475.03;;;38.06;20.10
47374;BME280;33123;50.118;10.272;2022-07-12T11:14:59;98479.59;;;38.19;19.86
47374;BME280;33123;50.118;10.272;2022-07-12T11:17:28;98469.78;;;38.18;19.87
47374;BME280;33123;50.118;10.272;2022-07-12T11:20:09;98468.00;;;38.01;20.22
47374;BME280;33123;50.118;10.272;2022-07-12T11:22:41;98471.25;;;37.92;20.39
47374;BME280;33123;50.118;10.272;2022-07-12T11:25:09;98473.34;;;37.77;21.32
47374;BME280;33123;50.118;10.272;2022-07-12T11:27:36;98470.84;;;37.52;20.30
47374;BME280;33123;50.118;10.272;2022-07-12T11:30:04;98468.75;;;37.67;21.00
47374;BME280;33123;50.118;10.272;2022-07-12T11:32:38;98468.28;;;37.76;20.89
47374;BME280;33123;50.118;10.272;2022-07-12T11:35:18;98462.78;;;37.72;20.43
47374;BME280;33123;50.118;10.272;2022-07-12T11:37:52;98454.97;;;37.71;20.43
47374;BME280;33123;50.118;10.272;2022-07-12T11:40:26;98448.69;;;37.67;20.34
47374;BME280;33123;50.118;10.272;2022-07-12T11:42:55;98451.53;;;37.60;20.85
47374;BME280;33123;50.118;10.272;2022-07-12T11:45:24;98445.81;;;37.43;20.85
47374;BME280;33123;50.118;10.272;2022-07-12T11:47:52;98442.00;;;37.26;21.11
47374;BME280;33123;50.118;10.272;2022-07-12T11:50:19;98449.94;;;37.14;20.48
47374;BME280;33123;50.118;10.272;2022-07-12T11:52:46;98432.06;;;36.91;21.38
47374;BME280;33123;50.118;10.272;2022-07-12T11:55:13;98448.88;;;36.97;21.00
47374;BME280;33123;50.118;10.272;2022-07-12T11:57:40;98444.16;;;36.97;20.83
47374;BME280;33123;50.118;10.272;2022-07-12T12:00:15;98437.41;;;36.50;20.89
47374;BME280;33123;50.118;10.272;2022-07-12T12:02:42;98434.88;;;36.00;20.98
47374;BME280;33123;50.118;10.272;2022-07-12T12:05:11;98436.88;;;35.82;22.41
47374;BME280;33123;50.118;10.272;2022-07-12T12:07:38;98436.13;;;35.53;22.29
47374;BME280;33123;50.118;10.272;2022-07-12T12:10:06;98427.88;;;35.42;21.74
47374;BME280;33123;50.118;10.272;2022-07-12T12:12:38;98429.88;;;35.24;21.41
47374;BME280;33123;50.118;10.272;2022-07-12T12:15:08;98431.06;;;35.15;21.88
47374;BME280;33123;50.118;10.272;2022-07-12T12:17:37;98421.66;;;35.02;22.09
47374;BME280;33123;50.118;10.272;2022-07-12T12:20:16;98418.50;;;34.97;22.82
47374;BME280;33123;50.118;10.272;2022-07-12T12:22:45;98416.13;;;34.91;22.80
47374;BME280;33123;50.118;10.272;2022-07-12T12:25:13;98387.97;;;34.84;22.87
47374;BME280;33123;50.118;10.272;2022-07-12T12:27:41;98412.25;;;35.00;22.64
47374;BME280;33123;50.118;10.272;2022-07-12T12:30:09;98415.34;;;34.77;21.81
47374;BME280;33123;50.118;10.272;2022-07-12T12:32:48;98414.84;;;34.42;23.32
47374;BME280;33123;50.118;10.272;2022-07-12T12:35:19;98410.50;;;34.24;23.01
47374;BME280;33123;50.118;10.272;2022-07-12T12:37:53;98421.41;;;34.20;22.99
47374;BME280;33123;50.118;10.272;2022-07-12T12:40:22;98400.28;;;34.06;23.00
47374;BME280;33123;50.118;10.272;2022-07-12T12:42:49;98415.16;;;34.20;23.23
47374;BME280;33123;50.118;10.272;2022-07-12T12:45:19;98414.78;;;34.18;22.64
47374;BME280;33123;50.118;10.272;2022-07-12T12:47:53;98412.03;;;34.18;23.65
47374;BME280;33123;50.118;10.272;2022-07-12T12:50:46;98403.38;;;34.01;23.47
47374;BME280;33123;50.118;10.272;2022-07-12T12:53:15;98405.16;;;33.76;24.29
47374;BME280;33123;50.118;10.272;2022-07-12T12:55:43;98412.53;;;33.65;24.38
47374;BME280;33123;50.118;10.272;2022-07-12T12:58:12;98398.44;;;33.59;23.40
47374;BME280;33123;50.118;10.272;2022-07-12T13:00:40;98394.53;;;33.56;24.45